Meteo Giornale » Osservazioni meteo Italia » Pratica Di Mare

ore: 08:55 - Osservazioni Meteo Pratica Di Mare
Lat. 41° 39' N Lon. 12° 27' E Alt. 6 metri s.l.m.

nuvoloso Europe/Rome

10 °C

Nuvoloso

Temp. 24 Ore

6 °C

14 °C

Est

14.8 Km/h

Dew point 5 °C

Umidità 71 %

Visibilità  10 Km

Il sole sorge alle ore 07:27

Il sole tramonta alle ore 17:16

Data e Ora Cielo e Fenomeni T °C DP °C Um. % Pres. hPa Vis. km Vento km/h
Oggi h: 08:55 nuvoloso Nuvoloso 10 5 71 1027 10 E 14.8
Oggi h: 07:55 sereno Sereno 8 4 75 1027 10 E 16.7
Oggi h: 06:55 sereno Sereno 8 4 75 1027 10 E 13
Oggi h: 04:55 sereno Sereno 7 3 75 1026 6 E 14.8
Oggi h: 03:55 sereno Sereno 6 3 81 1027 6 E 9.3
Oggi h: 02:55 sereno Sereno 6 3 81 1027 7 E 7.4
Oggi h: 01:55 sereno Sereno 6 3 81 1027 8 N 3.7
Ieri h: 23:55 sereno Sereno 6 4 86 1027 10 N/NE 7.4
Ieri h: 22:55 sereno Sereno 7 4 81 1027 10 NE 7.4
Ieri h: 21:55 sereno Sereno 7 5 87 1027 10 NE 7.4
Ieri h: 20:55 sereno Sereno 7 5 87 1027 10 NE 7.4
Ieri h: 19:55 sereno Sereno 8 5 81 1027 10 N 5.5
Ieri h: 18:55 sereno Sereno 8 6 87 1027 10 N 5.5
Ieri h: 17:55 sereno Sereno 10 8 87 1027 10 N 1.8
Ieri h: 16:55 sereno Sereno 13 8 71 1027 10 N 3.7
Ieri h: 14:55 sereno Sereno 14 7 62 1027 10 O/SO 9.3
Ieri h: 12:55 poco_nuvoloso Poco Nuvoloso 14 7 62 1029 10 N 3.7
Ieri h: 11:55 sereno Sereno 14 8 67 1029 10 N 5.5
Ieri h: 10:55 sereno Sereno 11 7 76 1029 10 N/NE 7.4
Ieri h: 09:55 sereno Sereno 9 5 75 1029 10 NE 11.1
Ieri h: 08:55 poco_nuvoloso Poco Nuvoloso 7 4 81 1029 10 NE 13